createdAt,value
2022-12-01T00:00:25.879Z,5.75
2022-12-01T00:02:55.919Z,6.45
2022-12-01T00:05:25.889Z,6.53
2022-12-01T00:07:55.913Z,6.53
2022-12-01T00:10:28.435Z,6.72
2022-12-01T00:13:03.175Z,6.47
2022-12-01T00:15:37.613Z,6.47
2022-12-01T00:18:07.244Z,6.00
2022-12-01T00:20:37.290Z,7.43
2022-12-01T00:23:09.112Z,7.25
2022-12-01T00:25:39.025Z,7.57
2022-12-01T00:28:09.457Z,6.82
2022-12-01T00:30:39.458Z,7.35
2022-12-01T00:33:09.082Z,6.97
2022-12-01T00:35:39.018Z,7.32
2022-12-01T00:38:08.754Z,7.20
2022-12-01T00:40:38.708Z,6.95
2022-12-01T00:43:08.825Z,7.43
2022-12-01T00:45:38.776Z,7.53
2022-12-01T00:48:08.799Z,7.72
2022-12-01T00:50:38.311Z,8.02
2022-12-01T00:53:07.784Z,8.02
2022-12-01T00:55:37.277Z,8.00
2022-12-01T00:58:07.287Z,8.25
2022-12-01T01:00:39.345Z,8.80
2022-12-01T01:03:09.953Z,9.35
2022-12-01T01:05:41.324Z,9.18
2022-12-01T01:08:12.845Z,8.60
2022-12-01T01:10:44.014Z,9.45
2022-12-01T01:13:14.944Z,9.93
2022-12-01T01:15:44.628Z,10.23
2022-12-01T01:18:14.365Z,10.85
2022-12-01T01:20:44.359Z,10.15
2022-12-01T01:23:14.331Z,10.07
2022-12-01T01:25:44.278Z,11.15
2022-12-01T01:28:13.864Z,10.85
2022-12-01T01:30:43.764Z,11.18
2022-12-01T01:33:13.798Z,10.90
2022-12-01T01:35:43.826Z,11.00
2022-12-01T01:38:13.807Z,11.50
2022-12-01T01:40:52.448Z,11.48
2022-12-01T01:43:43.801Z,10.88
2022-12-01T01:46:18.375Z,11.90
2022-12-01T01:49:02.248Z,12.23
2022-12-01T01:51:38.550Z,11.65
2022-12-01T01:54:11.011Z,12.98
2022-12-01T01:56:40.952Z,13.65
2022-12-01T01:59:11.421Z,12.68
2022-12-01T02:01:41.564Z,13.32
2022-12-01T02:04:11.078Z,13.35
2022-12-01T02:06:41.024Z,13.63
2022-12-01T02:09:12.083Z,14.07
2022-12-01T02:12:00.416Z,13.85
2022-12-01T02:14:41.620Z,12.20
2022-12-01T02:17:20.939Z,13.52
2022-12-01T02:20:09.507Z,13.52
2022-12-01T02:23:14.134Z,12.77
2022-12-01T02:25:49.111Z,14.00
2022-12-01T02:28:37.182Z,14.13
2022-12-01T02:31:12.704Z,14.15
2022-12-01T02:33:46.216Z,14.27
2022-12-01T02:36:31.291Z,13.65
2022-12-01T02:39:24.219Z,14.40
2022-12-01T02:42:03.417Z,14.40
2022-12-01T02:44:36.406Z,14.23
2022-12-01T02:47:15.843Z,15.00
2022-12-01T02:49:54.362Z,14.80
2022-12-01T02:52:23.857Z,14.90
2022-12-01T02:54:53.792Z,16.08
2022-12-01T02:57:23.832Z,15.43
2022-12-01T02:59:55.175Z,14.52
2022-12-01T03:02:44.141Z,15.18
2022-12-01T03:05:32.239Z,15.00
2022-12-01T03:08:24.532Z,15.25
2022-12-01T03:10:54.520Z,14.88
2022-12-01T03:13:33.148Z,15.82
2022-12-01T03:16:15.928Z,15.60
2022-12-01T03:18:46.011Z,15.52
2022-12-01T03:21:38.282Z,18.98
2022-12-01T03:24:12.490Z,20.00
2022-12-01T03:26:43.250Z,20.35
2022-12-01T03:29:17.694Z,24.50
2022-12-01T03:31:54.260Z,32.83
2022-12-01T03:34:33.751Z,30.25
2022-12-01T03:37:09.621Z,30.50
2022-12-01T03:39:40.184Z,30.17
2022-12-01T03:42:27.168Z,30.20
2022-12-01T03:44:57.982Z,28.10
2022-12-01T03:47:30.658Z,28.83
2022-12-01T03:50:00.936Z,29.53
2022-12-01T03:52:49.634Z,27.02
2022-12-01T03:55:24.771Z,26.60
2022-12-01T03:58:07.887Z,26.08
2022-12-01T04:00:37.522Z,29.70
2022-12-01T04:03:07.219Z,23.98
2022-12-01T04:05:37.071Z,23.73
2022-12-01T04:08:07.130Z,23.45
2022-12-01T04:10:36.737Z,23.42
2022-12-01T04:13:06.268Z,23.58
2022-12-01T04:15:35.795Z,22.75
2022-12-01T04:18:05.386Z,21.80
2022-12-01T04:20:35.106Z,21.55
2022-12-01T04:23:05.120Z,21.45
2022-12-01T04:25:35.039Z,20.20
2022-12-01T04:28:04.640Z,19.70
2022-12-01T04:30:34.538Z,19.35
2022-12-01T04:33:04.491Z,18.95
2022-12-01T04:35:34.498Z,17.88
2022-12-01T04:38:04.002Z,16.50
2022-12-01T04:40:33.953Z,15.68
2022-12-01T04:43:03.910Z,15.30
2022-12-01T04:45:33.850Z,14.90
2022-12-01T04:48:03.423Z,14.48
2022-12-01T04:50:33.340Z,14.88
2022-12-01T04:53:02.822Z,13.75
2022-12-01T04:55:32.372Z,12.23
2022-12-01T04:58:03.519Z,12.63
2022-12-01T05:00:33.628Z,12.50
2022-12-01T05:03:04.199Z,11.90
2022-12-01T05:05:34.154Z,10.77
2022-12-01T05:08:04.199Z,11.07
2022-12-01T05:10:37.547Z,10.88
2022-12-01T05:13:07.266Z,9.75
2022-12-01T05:15:36.746Z,9.75
2022-12-01T05:18:07.928Z,9.50
2022-12-01T05:20:56.399Z,9.32
2022-12-01T05:23:29.704Z,8.75
2022-12-01T05:25:59.810Z,9.13
2022-12-01T05:28:29.950Z,8.52
2022-12-01T05:30:59.671Z,8.27
2022-12-01T05:33:29.861Z,7.55
2022-12-01T05:35:59.710Z,7.00
2022-12-01T05:38:29.671Z,7.25
2022-12-01T05:40:59.391Z,6.75
2022-12-01T05:43:29.820Z,6.85
2022-12-01T05:46:00.112Z,6.78
2022-12-01T05:48:29.880Z,7.15
2022-12-01T05:50:59.650Z,6.50
2022-12-01T05:53:29.581Z,6.57
2022-12-01T05:55:59.130Z,6.28
2022-12-01T05:58:28.597Z,5.47
2022-12-01T06:00:58.698Z,5.35
2022-12-01T06:03:28.475Z,5.38
2022-12-01T06:05:58.334Z,5.40
2022-12-01T06:08:29.002Z,4.90
2022-12-01T06:10:59.131Z,5.97
2022-12-01T06:13:30.006Z,5.32
2022-12-01T06:16:03.927Z,4.85
2022-12-01T06:18:35.476Z,4.55
2022-12-01T06:21:06.843Z,4.75
2022-12-01T06:23:39.706Z,4.50
2022-12-01T06:26:09.761Z,4.30
2022-12-01T06:28:39.759Z,4.78
2022-12-01T06:31:09.872Z,4.63
2022-12-01T06:33:39.737Z,3.70
2022-12-01T06:36:11.662Z,3.88
2022-12-01T06:38:41.929Z,3.75
2022-12-01T06:41:12.107Z,3.50
2022-12-01T06:43:41.822Z,3.42
2022-12-01T06:46:11.460Z,3.33
2022-12-01T06:48:41.317Z,3.58
2022-12-01T06:51:11.642Z,3.40
2022-12-01T06:53:41.643Z,3.20
2022-12-01T06:56:11.966Z,3.17
2022-12-01T06:58:42.314Z,3.30
2022-12-01T07:01:13.360Z,2.75
2022-12-01T07:03:44.238Z,3.38
2022-12-01T07:06:14.209Z,2.90
2022-12-01T07:08:43.910Z,3.17
2022-12-01T07:11:14.588Z,3.20
2022-12-01T07:13:46.541Z,2.58
2022-12-01T07:16:16.601Z,2.63
2022-12-01T07:18:46.648Z,2.40
2022-12-01T07:21:17.042Z,2.47
2022-12-01T07:23:46.609Z,2.22
2022-12-01T07:26:18.010Z,2.45
2022-12-01T07:28:47.934Z,2.10
2022-12-01T07:31:19.498Z,1.90
2022-12-01T07:33:49.081Z,1.98
2022-12-01T07:36:19.424Z,2.33
2022-12-01T07:38:49.454Z,2.17
2022-12-01T07:41:22.444Z,1.85
2022-12-01T07:43:53.648Z,1.98
2022-12-01T07:46:24.543Z,1.70
2022-12-01T07:48:55.829Z,1.48
2022-12-01T07:51:26.183Z,1.60
2022-12-01T07:53:55.955Z,1.70
2022-12-01T07:56:26.533Z,1.75
2022-12-01T07:58:56.757Z,1.80
2022-12-01T08:01:27.174Z,1.88
2022-12-01T08:03:58.263Z,1.63
2022-12-01T08:06:28.586Z,1.67
2022-12-01T08:08:58.381Z,1.55
2022-12-01T08:11:30.932Z,1.77
2022-12-01T08:14:00.549Z,1.75
2022-12-01T08:16:30.825Z,1.60
2022-12-01T08:19:01.069Z,2.00
2022-12-01T08:21:32.141Z,1.83
2022-12-01T08:24:02.267Z,2.03
2022-12-01T08:26:32.478Z,1.80
2022-12-01T08:29:02.817Z,1.75
2022-12-01T08:31:33.937Z,1.73
2022-12-01T08:34:07.595Z,1.90
2022-12-01T08:36:37.639Z,2.38
2022-12-01T08:39:09.073Z,2.25
2022-12-01T08:41:39.001Z,1.65
2022-12-01T08:44:08.522Z,1.80
2022-12-01T08:46:38.669Z,1.90
2022-12-01T08:49:08.465Z,1.58
2022-12-01T08:51:38.157Z,2.00
2022-12-01T08:54:07.957Z,1.80
2022-12-01T08:56:45.135Z,1.70
2022-12-01T08:59:15.227Z,2.00
2022-12-01T09:01:54.142Z,2.10
2022-12-01T09:04:26.236Z,2.17
2022-12-01T09:06:57.095Z,1.70
2022-12-01T09:09:29.377Z,2.03
2022-12-01T09:11:58.919Z,2.00
2022-12-01T09:14:29.416Z,2.03
2022-12-01T09:16:59.088Z,2.38
2022-12-01T09:19:29.385Z,2.20
2022-12-01T09:21:59.000Z,2.25
2022-12-01T09:24:29.036Z,2.38
2022-12-01T09:27:01.350Z,2.20
2022-12-01T09:29:33.494Z,2.25
2022-12-01T09:32:03.791Z,2.80
2022-12-01T09:34:33.858Z,2.75
2022-12-01T09:37:14.269Z,2.78
2022-12-01T09:39:44.259Z,2.22
2022-12-01T09:42:16.596Z,2.13
2022-12-01T09:44:58.266Z,1.88
2022-12-01T09:47:36.220Z,2.40
2022-12-01T09:50:14.299Z,2.10
2022-12-01T09:52:48.721Z,2.00
2022-12-01T09:55:20.756Z,2.20
2022-12-01T09:57:54.896Z,2.13
2022-12-01T10:00:32.934Z,1.90
2022-12-01T10:03:12.363Z,2.38
2022-12-01T10:06:25.852Z,2.15
2022-12-01T10:09:09.350Z,2.03
2022-12-01T10:11:42.372Z,2.20
2022-12-01T10:14:19.960Z,2.50
2022-12-01T10:17:11.724Z,1.85
2022-12-01T10:20:10.107Z,2.13
2022-12-01T10:23:08.197Z,2.20
2022-12-01T10:26:20.715Z,2.00
2022-12-01T10:28:50.158Z,2.17
2022-12-01T10:31:21.288Z,2.13
2022-12-01T10:33:59.860Z,2.25
2022-12-01T10:36:30.402Z,2.28
2022-12-01T10:39:00.328Z,2.10
2022-12-01T10:41:31.598Z,2.60
2022-12-01T10:44:01.843Z,2.38
2022-12-01T10:46:46.532Z,2.25
2022-12-01T10:49:18.271Z,2.60
2022-12-01T10:51:56.265Z,2.13
2022-12-01T10:54:37.200Z,2.50
2022-12-01T10:57:07.986Z,2.50
2022-12-01T10:59:53.383Z,3.17
2022-12-01T11:02:24.975Z,2.72
2022-12-01T11:04:55.770Z,3.15
2022-12-01T11:07:47.650Z,3.50
2022-12-01T11:10:21.732Z,3.35
2022-12-01T11:13:24.522Z,3.92
2022-12-01T11:15:59.063Z,3.97
2022-12-01T11:18:36.734Z,3.60
2022-12-01T11:21:14.871Z,4.47
2022-12-01T11:23:48.689Z,4.32
2022-12-01T11:26:29.120Z,4.38
2022-12-01T11:29:37.202Z,4.40
2022-12-01T11:32:20.849Z,5.20
2022-12-01T11:35:06.748Z,5.30
2022-12-01T11:37:41.960Z,5.28
2022-12-01T11:40:15.121Z,4.97
2022-12-01T11:42:48.575Z,5.05
2022-12-01T11:45:34.818Z,5.38
2022-12-01T11:48:27.238Z,5.78
2022-12-01T11:51:21.520Z,5.18
2022-12-01T11:53:51.512Z,5.40
2022-12-01T11:56:29.893Z,5.90
2022-12-01T11:59:17.308Z,5.75
2022-12-01T12:02:08.995Z,5.85
2022-12-01T12:05:00.616Z,6.00
2022-12-01T12:07:41.174Z,6.20
2022-12-01T12:10:30.549Z,6.20
2022-12-01T12:13:32.263Z,6.80
2022-12-01T12:16:07.971Z,6.38
2022-12-01T12:18:37.448Z,6.70
2022-12-01T12:21:09.893Z,6.90
2022-12-01T12:24:05.912Z,7.20
2022-12-01T12:27:06.358Z,6.38
2022-12-01T12:29:46.118Z,7.78
2022-12-01T12:32:40.315Z,7.72
2022-12-01T12:37:56.631Z,8.20
2022-12-01T12:40:40.299Z,8.40
2022-12-01T12:43:47.352Z,8.90
2022-12-01T12:46:23.458Z,8.48
2022-12-01T12:51:57.311Z,9.20
2022-12-01T12:54:44.523Z,9.02
2022-12-01T12:57:38.546Z,9.27
2022-12-01T13:00:30.665Z,8.38
2022-12-01T13:03:01.393Z,9.18
2022-12-01T13:05:39.894Z,9.20
2022-12-01T13:08:19.779Z,8.45
2022-12-01T13:11:01.051Z,8.73
2022-12-01T13:14:04.666Z,8.90
2022-12-01T13:16:41.777Z,9.73
2022-12-01T13:19:15.494Z,10.05
2022-12-01T13:24:23.030Z,9.93
2022-12-01T13:27:17.461Z,9.55
2022-12-01T13:29:51.288Z,9.70
2022-12-01T13:32:43.846Z,10.02
2022-12-01T13:35:39.045Z,10.57
2022-12-01T13:38:30.626Z,10.68
2022-12-01T13:41:21.423Z,10.85
2022-12-01T13:43:56.920Z,11.02
2022-12-01T13:46:45.693Z,10.82
2022-12-01T13:49:45.512Z,11.38
2022-12-01T13:52:24.803Z,11.25
2022-12-01T13:55:10.793Z,12.10
2022-12-01T13:58:17.004Z,11.85
2022-12-01T14:00:46.577Z,11.98
2022-12-01T14:03:20.102Z,12.07
2022-12-01T14:06:00.117Z,11.68
2022-12-01T14:08:34.431Z,12.25
2022-12-01T14:11:04.004Z,12.10
2022-12-01T14:13:46.175Z,11.35
2022-12-01T14:16:17.247Z,12.23
2022-12-01T14:18:59.190Z,12.70
2022-12-01T14:21:43.628Z,12.82
2022-12-01T14:24:28.546Z,12.93
2022-12-01T14:26:58.903Z,12.48
2022-12-01T14:29:44.253Z,12.80
2022-12-01T14:32:22.767Z,12.93
2022-12-01T14:34:52.941Z,12.32
2022-12-01T14:37:24.809Z,12.88
2022-12-01T14:40:05.301Z,13.35
2022-12-01T14:43:03.959Z,13.30
2022-12-01T14:45:59.352Z,13.02
2022-12-01T14:48:37.431Z,14.55
2022-12-01T14:51:21.294Z,13.20
2022-12-01T14:56:21.215Z,12.88
2022-12-01T14:59:01.467Z,13.30
2022-12-01T15:01:35.993Z,13.68
2022-12-01T15:04:07.269Z,12.93
2022-12-01T15:06:37.544Z,13.00
2022-12-01T15:09:32.894Z,12.75
2022-12-01T15:14:34.100Z,14.23
2022-12-01T15:17:05.843Z,13.82
2022-12-01T15:19:40.775Z,13.98
2022-12-01T15:22:18.104Z,13.90
2022-12-01T15:24:47.851Z,13.02
2022-12-01T15:27:33.339Z,13.20
2022-12-01T15:30:05.493Z,12.80
2022-12-01T15:32:38.999Z,13.15
2022-12-01T15:35:08.722Z,13.25
2022-12-01T15:37:45.756Z,12.52
2022-12-01T15:41:06.180Z,14.40
2022-12-01T15:43:22.313Z,13.02
2022-12-01T15:45:58.436Z,13.88
2022-12-01T15:48:37.898Z,13.18
2022-12-01T15:51:27.288Z,14.32
2022-12-01T15:54:01.403Z,12.95
2022-12-01T15:56:37.712Z,12.80
2022-12-01T15:59:22.041Z,13.65
2022-12-01T16:01:52.551Z,13.38
2022-12-01T16:04:27.433Z,14.63
2022-12-01T16:07:08.324Z,14.10
2022-12-01T16:09:37.799Z,13.98
2022-12-01T16:12:28.350Z,14.27
2022-12-01T16:15:04.681Z,14.70
2022-12-01T16:17:53.791Z,13.45
2022-12-01T16:20:24.884Z,14.02
2022-12-01T16:22:59.871Z,14.27
2022-12-01T16:25:48.945Z,14.02
2022-12-01T16:28:35.621Z,14.27
2022-12-01T16:31:07.586Z,15.55
2022-12-01T16:33:40.474Z,14.40
2022-12-01T16:36:10.691Z,14.48
2022-12-01T16:38:40.692Z,15.77
2022-12-01T16:41:27.180Z,14.93
2022-12-01T16:44:26.583Z,15.10
2022-12-01T16:46:48.944Z,14.75
2022-12-01T16:49:18.568Z,16.00
2022-12-01T16:51:57.181Z,15.40
2022-12-01T16:54:31.771Z,15.50
2022-12-01T16:57:01.338Z,14.90
2022-12-01T16:59:32.085Z,15.90
2022-12-01T17:02:02.175Z,16.17
2022-12-01T17:04:32.470Z,16.15
2022-12-01T17:07:02.340Z,16.83
2022-12-01T17:09:31.805Z,16.33
2022-12-01T17:12:01.675Z,17.65
2022-12-01T17:14:31.676Z,16.60
2022-12-01T17:17:01.839Z,16.45
2022-12-01T17:19:31.419Z,17.33
2022-12-01T17:22:01.352Z,17.30
2022-12-01T17:24:31.358Z,18.52
2022-12-01T17:27:01.471Z,18.88
2022-12-01T17:29:31.008Z,19.98
2022-12-01T17:32:01.059Z,19.75
2022-12-01T17:34:31.014Z,19.38
2022-12-01T17:37:03.971Z,21.35
2022-12-01T17:39:35.647Z,21.30
2022-12-01T17:42:05.661Z,21.33
2022-12-01T17:44:35.552Z,21.42
2022-12-01T17:47:06.748Z,21.63
2022-12-01T17:49:37.932Z,21.60
2022-12-01T17:52:09.456Z,21.95
2022-12-01T17:54:40.190Z,21.98
2022-12-01T17:57:10.950Z,22.40
2022-12-01T17:59:43.697Z,21.58
2022-12-01T18:02:13.894Z,23.50
2022-12-01T18:04:45.054Z,22.15
2022-12-01T18:07:16.078Z,22.13
2022-12-01T18:09:45.648Z,21.98
2022-12-01T18:12:15.597Z,22.23
2022-12-01T18:14:45.546Z,21.63
2022-12-01T18:17:15.537Z,21.85
2022-12-01T18:19:45.388Z,22.35
2022-12-01T18:22:15.281Z,23.40
2022-12-01T18:24:44.883Z,22.63
2022-12-01T18:27:14.545Z,22.60
2022-12-01T18:29:45.109Z,22.52
2022-12-01T18:32:14.870Z,23.13
2022-12-01T18:34:45.028Z,23.27
2022-12-01T18:37:15.122Z,22.85
2022-12-01T18:39:45.257Z,22.95
2022-12-01T18:42:14.806Z,22.42
2022-12-01T18:44:44.349Z,22.67
2022-12-01T18:47:14.348Z,22.80
2022-12-01T18:49:43.909Z,22.95
2022-12-01T18:52:13.663Z,23.48
2022-12-01T18:54:43.682Z,22.30
2022-12-01T18:57:15.715Z,22.70
2022-12-01T18:59:45.546Z,22.27
2022-12-01T19:02:15.003Z,21.83
2022-12-01T19:04:44.600Z,22.02
2022-12-01T19:07:15.045Z,21.17
2022-12-01T19:09:45.313Z,20.70
2022-12-01T19:12:15.426Z,20.92
2022-12-01T19:14:45.474Z,20.83
2022-12-01T19:17:15.908Z,20.05
2022-12-01T19:19:46.315Z,21.92
2022-12-01T19:22:15.971Z,21.17
2022-12-01T19:24:49.985Z,20.95
2022-12-01T19:27:21.254Z,20.65
2022-12-01T19:29:53.362Z,21.02
2022-12-01T19:32:23.665Z,20.13
2022-12-01T19:34:53.213Z,20.35
2022-12-01T19:37:23.374Z,18.90
2022-12-01T19:39:53.391Z,19.52
2022-12-01T19:42:23.452Z,19.63
2022-12-01T19:44:53.488Z,18.77
2022-12-01T19:47:23.857Z,20.38
2022-12-01T19:49:53.681Z,19.95
2022-12-01T19:52:23.679Z,19.92
2022-12-01T19:54:54.101Z,20.63
2022-12-01T19:57:24.274Z,19.52
2022-12-01T19:59:53.833Z,20.42
2022-12-01T20:02:29.147Z,19.92
2022-12-01T20:04:59.848Z,19.63
2022-12-01T20:07:29.939Z,20.23
2022-12-01T20:09:59.867Z,19.48
2022-12-01T20:12:29.567Z,20.25
2022-12-01T20:14:59.332Z,19.65
2022-12-01T20:17:30.492Z,19.65
2022-12-01T20:20:00.198Z,19.92
2022-12-01T20:22:33.999Z,20.65
2022-12-01T20:25:04.424Z,19.27
2022-12-01T20:27:34.166Z,19.73
2022-12-01T20:30:04.141Z,19.63
2022-12-01T20:32:34.593Z,19.50
2022-12-01T20:35:04.851Z,20.02
2022-12-01T20:37:35.035Z,19.85
2022-12-01T20:40:05.055Z,20.30
2022-12-01T20:42:35.101Z,19.80
2022-12-01T20:45:04.950Z,20.55
2022-12-01T20:47:37.894Z,20.38
2022-12-01T20:50:08.102Z,20.23
2022-12-01T20:52:40.619Z,21.00
2022-12-01T20:55:11.343Z,19.65
2022-12-01T20:57:41.474Z,21.23
2022-12-01T21:00:14.546Z,20.45
2022-12-01T21:02:46.918Z,19.67
2022-12-01T21:05:17.157Z,19.50
2022-12-01T21:07:47.338Z,20.98
2022-12-01T21:10:19.914Z,20.15
2022-12-01T21:13:10.603Z,20.52
2022-12-01T21:15:52.853Z,21.10
2022-12-01T21:18:29.884Z,20.17
2022-12-01T21:21:06.231Z,20.13
2022-12-01T21:23:36.055Z,19.73
2022-12-01T21:26:10.844Z,20.10
2022-12-01T21:28:40.502Z,21.10
2022-12-01T21:31:13.740Z,19.55
2022-12-01T21:33:43.573Z,20.98
2022-12-01T21:36:17.572Z,20.42
2022-12-01T21:38:47.952Z,20.05
2022-12-01T21:41:21.312Z,20.42
2022-12-01T21:43:53.314Z,20.15
2022-12-01T21:46:23.661Z,20.85
2022-12-01T21:48:53.305Z,19.20
2022-12-01T21:51:25.694Z,20.83
2022-12-01T21:53:56.963Z,19.42
2022-12-01T21:56:32.533Z,20.42
2022-12-01T21:59:10.909Z,20.25
2022-12-01T22:01:42.203Z,20.10
2022-12-01T22:04:21.487Z,20.27
2022-12-01T22:06:57.044Z,19.35
2022-12-01T22:09:32.593Z,19.73
2022-12-01T22:12:32.280Z,19.70
2022-12-01T22:15:02.204Z,18.52
2022-12-01T22:17:32.143Z,19.10
2022-12-01T22:20:03.438Z,19.08
2022-12-01T22:22:33.455Z,18.73
2022-12-01T22:25:26.243Z,18.70
2022-12-01T22:27:57.191Z,18.33
2022-12-01T22:30:27.361Z,17.67
2022-12-01T22:32:58.512Z,18.00
2022-12-01T22:35:46.682Z,17.77
2022-12-01T22:38:23.756Z,18.75
2022-12-01T22:41:21.992Z,17.45
2022-12-01T22:43:58.393Z,18.90
2022-12-01T22:46:40.456Z,18.42
2022-12-01T22:49:23.356Z,17.98
2022-12-01T22:52:01.388Z,17.60
2022-12-01T22:54:40.467Z,16.95
2022-12-01T22:57:10.404Z,17.50
2022-12-01T22:59:41.522Z,16.65
2022-12-01T23:02:23.328Z,17.63
2022-12-01T23:05:01.671Z,16.98
2022-12-01T23:07:35.467Z,17.73
2022-12-01T23:10:05.040Z,17.55
2022-12-01T23:12:35.795Z,16.25
2022-12-01T23:15:28.808Z,17.10
2022-12-01T23:18:11.068Z,17.50
2022-12-01T23:20:41.224Z,17.08
2022-12-01T23:23:17.248Z,16.35
2022-12-01T23:25:47.412Z,17.45
2022-12-01T23:28:17.471Z,16.50
2022-12-01T23:30:47.544Z,16.70
2022-12-01T23:33:29.808Z,16.88
2022-12-01T23:36:19.466Z,16.63
2022-12-01T23:38:59.095Z,16.23
2022-12-01T23:41:42.563Z,15.73
2022-12-01T23:44:26.074Z,15.32
2022-12-01T23:46:57.932Z,16.40
2022-12-01T23:49:31.072Z,16.10
2022-12-01T23:52:02.743Z,15.40
2022-12-01T23:54:34.915Z,14.95
2022-12-01T23:57:10.724Z,15.02
2022-12-01T23:59:40.983Z,15.73
